In Rescue
 
Open Full Screen Window  High Contrast Mode
Wind Gusting 00 knots
03
November 29, 2022 8:40 AM EST
Present Weather: Mist
Weather Information
Wind Direction
  150 °
Wind Speed
  03 kt (3 mph)
Wind Gust
  00 kt (0 mph)
Altimeter
30.03 in
Visibility
5 SM
Temperature
06° C
43° F
Dewpoint
05° C
41° F
Humidity
93%
Sky Condition
Overcast @ 3,200 ft
MVFR

METAR KDUH 291340Z AUTO 15003KT 5SM BR OVC032 06/05 A3003 RMK AO2 T00640045

FAA Disclaimer: The data displayed is for advisory purposes only and is not to be used for flight planning or operations.